sensor_id;sensor_type;location;lat;lon;timestamp;P1;durP1;ratioP1;P2;durP2;ratioP2
51664;SDS011;37751;52.408;12.536;2023-07-28T00:00:16;4.00;;;1.33;;
51664;SDS011;37751;52.408;12.536;2023-07-28T00:02:44;6.50;;;1.30;;
51664;SDS011;37751;52.408;12.536;2023-07-28T00:05:12;5.65;;;0.90;;
51664;SDS011;37751;52.408;12.536;2023-07-28T00:07:39;2.28;;;1.17;;
51664;SDS011;37751;52.408;12.536;2023-07-28T00:10:08;1.35;;;1.10;;
51664;SDS011;37751;52.408;12.536;2023-07-28T00:12:36;3.28;;;1.08;;
51664;SDS011;37751;52.408;12.536;2023-07-28T00:15:04;1.90;;;0.70;;
51664;SDS011;37751;52.408;12.536;2023-07-28T00:17:32;2.65;;;1.10;;
51664;SDS011;37751;52.408;12.536;2023-07-28T00:20:00;5.80;;;1.52;;
51664;SDS011;37751;52.408;12.536;2023-07-28T00:22:28;2.08;;;1.23;;
51664;SDS011;37751;52.408;12.536;2023-07-28T00:24:56;3.33;;;1.17;;
51664;SDS011;37751;52.408;12.536;2023-07-28T00:27:24;2.58;;;1.20;;
51664;SDS011;37751;52.408;12.536;2023-07-28T00:29:52;2.85;;;1.27;;
51664;SDS011;37751;52.408;12.536;2023-07-28T00:32:22;3.72;;;1.13;;
51664;SDS011;37751;52.408;12.536;2023-07-28T00:34:49;5.55;;;1.20;;
51664;SDS011;37751;52.408;12.536;2023-07-28T00:37:17;7.10;;;1.30;;
51664;SDS011;37751;52.408;12.536;2023-07-28T00:39:46;4.22;;;1.77;;
51664;SDS011;37751;52.408;12.536;2023-07-28T00:42:13;5.30;;;1.70;;
51664;SDS011;37751;52.408;12.536;2023-07-28T00:44:41;6.88;;;1.70;;
51664;SDS011;37751;52.408;12.536;2023-07-28T00:47:09;5.68;;;1.75;;
51664;SDS011;37751;52.408;12.536;2023-07-28T00:49:37;6.47;;;2.40;;
51664;SDS011;37751;52.408;12.536;2023-07-28T00:52:07;3.50;;;2.28;;
51664;SDS011;37751;52.408;12.536;2023-07-28T00:54:35;6.45;;;2.25;;
51664;SDS011;37751;52.408;12.536;2023-07-28T00:57:03;6.78;;;3.00;;
51664;SDS011;37751;52.408;12.536;2023-07-28T00:59:32;5.03;;;2.65;;
51664;SDS011;37751;52.408;12.536;2023-07-28T01:02:00;7.07;;;3.92;;
51664;SDS011;37751;52.408;12.536;2023-07-28T01:04:29;8.30;;;3.60;;
51664;SDS011;37751;52.408;12.536;2023-07-28T01:07:06;5.10;;;2.90;;
51664;SDS011;37751;52.408;12.536;2023-07-28T01:10:05;12.02;;;3.88;;
51664;SDS011;37751;52.408;12.536;2023-07-28T01:12:36;7.50;;;4.10;;
51664;SDS011;37751;52.408;12.536;2023-07-28T01:15:04;4.00;;;3.70;;
51664;SDS011;37751;52.408;12.536;2023-07-28T01:17:33;7.07;;;4.75;;
51664;SDS011;37751;52.408;12.536;2023-07-28T01:20:01;6.90;;;4.47;;
51664;SDS011;37751;52.408;12.536;2023-07-28T01:26:09;6.32;;;4.93;;
51664;SDS011;37751;52.408;12.536;2023-07-28T01:28:39;9.10;;;5.00;;
51664;SDS011;37751;52.408;12.536;2023-07-28T01:31:08;5.80;;;4.18;;
51664;SDS011;37751;52.408;12.536;2023-07-28T01:33:36;5.38;;;4.53;;
51664;SDS011;37751;52.408;12.536;2023-07-28T01:36:04;4.75;;;4.15;;
51664;SDS011;37751;52.408;12.536;2023-07-28T01:38:32;8.63;;;5.05;;
51664;SDS011;37751;52.408;12.536;2023-07-28T01:41:00;12.63;;;6.22;;
51664;SDS011;37751;52.408;12.536;2023-07-28T01:43:27;10.40;;;5.05;;
51664;SDS011;37751;52.408;12.536;2023-07-28T01:45:55;8.25;;;4.88;;
51664;SDS011;37751;52.408;12.536;2023-07-28T01:48:23;9.73;;;5.05;;
51664;SDS011;37751;52.408;12.536;2023-07-28T01:50:51;11.63;;;5.72;;
51664;SDS011;37751;52.408;12.536;2023-07-28T01:53:19;7.55;;;5.82;;
51664;SDS011;37751;52.408;12.536;2023-07-28T01:55:47;13.07;;;6.38;;
51664;SDS011;37751;52.408;12.536;2023-07-28T01:58:14;7.50;;;5.88;;
51664;SDS011;37751;52.408;12.536;2023-07-28T02:00:42;7.45;;;5.43;;
51664;SDS011;37751;52.408;12.536;2023-07-28T02:03:10;11.13;;;5.43;;
51664;SDS011;37751;52.408;12.536;2023-07-28T02:05:38;8.02;;;5.95;;
51664;SDS011;37751;52.408;12.536;2023-07-28T02:08:06;9.48;;;6.05;;
51664;SDS011;37751;52.408;12.536;2023-07-28T02:10:34;8.25;;;5.88;;
51664;SDS011;37751;52.408;12.536;2023-07-28T02:13:02;8.63;;;6.18;;
51664;SDS011;37751;52.408;12.536;2023-07-28T02:15:30;9.43;;;6.43;;
51664;SDS011;37751;52.408;12.536;2023-07-28T02:17:58;6.45;;;5.72;;
51664;SDS011;37751;52.408;12.536;2023-07-28T02:20:27;8.48;;;5.95;;
51664;SDS011;37751;52.408;12.536;2023-07-28T02:22:54;7.82;;;5.97;;
51664;SDS011;37751;52.408;12.536;2023-07-28T02:25:23;7.70;;;5.40;;
51664;SDS011;37751;52.408;12.536;2023-07-28T02:27:51;10.05;;;5.80;;
51664;SDS011;37751;52.408;12.536;2023-07-28T02:30:19;8.70;;;5.80;;
51664;SDS011;37751;52.408;12.536;2023-07-28T02:32:47;7.10;;;6.40;;
51664;SDS011;37751;52.408;12.536;2023-07-28T02:35:14;10.60;;;6.13;;
51664;SDS011;37751;52.408;12.536;2023-07-28T02:37:44;9.88;;;6.03;;
51664;SDS011;37751;52.408;12.536;2023-07-28T02:40:12;8.45;;;6.30;;
51664;SDS011;37751;52.408;12.536;2023-07-28T02:42:40;7.78;;;5.85;;
51664;SDS011;37751;52.408;12.536;2023-07-28T02:45:08;7.00;;;6.13;;
51664;SDS011;37751;52.408;12.536;2023-07-28T02:47:37;8.52;;;5.88;;
51664;SDS011;37751;52.408;12.536;2023-07-28T02:50:05;8.48;;;6.10;;
51664;SDS011;37751;52.408;12.536;2023-07-28T02:52:34;11.07;;;6.22;;
51664;SDS011;37751;52.408;12.536;2023-07-28T02:55:02;6.80;;;5.97;;
51664;SDS011;37751;52.408;12.536;2023-07-28T02:57:31;8.77;;;6.25;;
51664;SDS011;37751;52.408;12.536;2023-07-28T02:59:59;6.50;;;5.68;;
51664;SDS011;37751;52.408;12.536;2023-07-28T03:02:27;7.03;;;6.32;;
51664;SDS011;37751;52.408;12.536;2023-07-28T03:04:57;9.68;;;5.75;;
51664;SDS011;37751;52.408;12.536;2023-07-28T03:07:46;10.52;;;7.38;;
51664;SDS011;37751;52.408;12.536;2023-07-28T03:10:15;7.13;;;6.38;;
51664;SDS011;37751;52.408;12.536;2023-07-28T03:12:45;10.43;;;6.43;;
51664;SDS011;37751;52.408;12.536;2023-07-28T03:15:13;8.77;;;6.45;;
51664;SDS011;37751;52.408;12.536;2023-07-28T03:17:41;8.85;;;6.38;;
51664;SDS011;37751;52.408;12.536;2023-07-28T03:20:09;10.80;;;6.53;;
51664;SDS011;37751;52.408;12.536;2023-07-28T03:22:38;7.00;;;6.40;;
51664;SDS011;37751;52.408;12.536;2023-07-28T03:25:06;8.02;;;6.70;;
51664;SDS011;37751;52.408;12.536;2023-07-28T03:27:35;12.27;;;7.10;;
51664;SDS011;37751;52.408;12.536;2023-07-28T03:30:03;10.57;;;6.43;;
51664;SDS011;37751;52.408;12.536;2023-07-28T03:32:34;10.32;;;6.93;;
51664;SDS011;37751;52.408;12.536;2023-07-28T03:35:02;7.47;;;6.78;;
51664;SDS011;37751;52.408;12.536;2023-07-28T03:37:36;8.77;;;7.25;;
51664;SDS011;37751;52.408;12.536;2023-07-28T03:40:04;8.50;;;7.15;;
51664;SDS011;37751;52.408;12.536;2023-07-28T03:42:42;7.80;;;7.03;;
51664;SDS011;37751;52.408;12.536;2023-07-28T03:45:10;9.40;;;7.43;;
51664;SDS011;37751;52.408;12.536;2023-07-28T03:47:41;10.15;;;6.97;;
51664;SDS011;37751;52.408;12.536;2023-07-28T03:50:12;10.57;;;7.07;;
51664;SDS011;37751;52.408;12.536;2023-07-28T03:52:40;9.30;;;7.65;;
51664;SDS011;37751;52.408;12.536;2023-07-28T03:55:07;8.48;;;7.22;;
51664;SDS011;37751;52.408;12.536;2023-07-28T03:57:35;8.40;;;7.35;;
51664;SDS011;37751;52.408;12.536;2023-07-28T04:00:03;7.65;;;6.82;;
51664;SDS011;37751;52.408;12.536;2023-07-28T04:02:38;9.70;;;7.05;;
51664;SDS011;37751;52.408;12.536;2023-07-28T04:05:06;10.88;;;6.95;;
51664;SDS011;37751;52.408;12.536;2023-07-28T04:07:35;8.70;;;6.97;;
51664;SDS011;37751;52.408;12.536;2023-07-28T04:10:03;8.02;;;6.22;;
51664;SDS011;37751;52.408;12.536;2023-07-28T04:12:32;7.57;;;6.45;;
51664;SDS011;37751;52.408;12.536;2023-07-28T04:15:00;6.65;;;6.03;;
51664;SDS011;37751;52.408;12.536;2023-07-28T04:17:30;7.68;;;6.05;;
51664;SDS011;37751;52.408;12.536;2023-07-28T04:19:58;10.55;;;6.50;;
51664;SDS011;37751;52.408;12.536;2023-07-28T04:22:26;8.95;;;6.57;;
51664;SDS011;37751;52.408;12.536;2023-07-28T04:24:55;9.80;;;6.50;;
51664;SDS011;37751;52.408;12.536;2023-07-28T04:27:23;14.40;;;7.80;;
51664;SDS011;37751;52.408;12.536;2023-07-28T04:29:56;6.68;;;5.70;;
51664;SDS011;37751;52.408;12.536;2023-07-28T04:32:26;6.05;;;5.45;;
51664;SDS011;37751;52.408;12.536;2023-07-28T04:34:55;7.30;;;5.40;;
51664;SDS011;37751;52.408;12.536;2023-07-28T04:37:40;6.20;;;5.60;;
51664;SDS011;37751;52.408;12.536;2023-07-28T04:40:08;5.95;;;5.22;;
51664;SDS011;37751;52.408;12.536;2023-07-28T04:42:38;6.50;;;5.07;;
51664;SDS011;37751;52.408;12.536;2023-07-28T04:45:07;8.57;;;4.85;;
51664;SDS011;37751;52.408;12.536;2023-07-28T04:47:36;11.05;;;5.25;;
51664;SDS011;37751;52.408;12.536;2023-07-28T04:50:06;7.47;;;5.03;;
51664;SDS011;37751;52.408;12.536;2023-07-28T04:53:09;8.75;;;4.85;;
51664;SDS011;37751;52.408;12.536;2023-07-28T04:56:15;6.20;;;4.65;;
51664;SDS011;37751;52.408;12.536;2023-07-28T04:58:44;5.50;;;4.53;;
51664;SDS011;37751;52.408;12.536;2023-07-28T05:01:11;7.63;;;4.20;;
51664;SDS011;37751;52.408;12.536;2023-07-28T05:03:45;5.03;;;4.07;;
51664;SDS011;37751;52.408;12.536;2023-07-28T05:06:25;11.05;;;4.18;;
51664;SDS011;37751;52.408;12.536;2023-07-28T05:08:53;4.15;;;3.83;;
51664;SDS011;37751;52.408;12.536;2023-07-28T05:11:30;4.78;;;3.70;;
51664;SDS011;37751;52.408;12.536;2023-07-28T05:13:58;7.03;;;3.50;;
51664;SDS011;37751;52.408;12.536;2023-07-28T05:16:26;6.43;;;4.43;;
51664;SDS011;37751;52.408;12.536;2023-07-28T05:19:14;5.88;;;3.53;;
51664;SDS011;37751;52.408;12.536;2023-07-28T05:22:31;6.00;;;3.58;;
51664;SDS011;37751;52.408;12.536;2023-07-28T05:24:59;5.93;;;3.30;;
51664;SDS011;37751;52.408;12.536;2023-07-28T05:27:29;4.30;;;3.40;;
51664;SDS011;37751;52.408;12.536;2023-07-28T05:29:57;3.40;;;3.10;;
51664;SDS011;37751;52.408;12.536;2023-07-28T05:32:26;4.93;;;3.25;;
51664;SDS011;37751;52.408;12.536;2023-07-28T05:35:26;6.68;;;2.97;;
51664;SDS011;37751;52.408;12.536;2023-07-28T05:37:54;4.03;;;2.95;;
51664;SDS011;37751;52.408;12.536;2023-07-28T05:40:22;6.82;;;3.00;;
51664;SDS011;37751;52.408;12.536;2023-07-28T05:42:50;4.63;;;2.92;;
51664;SDS011;37751;52.408;12.536;2023-07-28T05:45:17;4.63;;;2.65;;
51664;SDS011;37751;52.408;12.536;2023-07-28T05:47:45;5.65;;;2.65;;
51664;SDS011;37751;52.408;12.536;2023-07-28T05:50:13;7.38;;;2.20;;
51664;SDS011;37751;52.408;12.536;2023-07-28T05:52:41;2.53;;;2.13;;
51664;SDS011;37751;52.408;12.536;2023-07-28T05:55:09;3.30;;;2.20;;
51664;SDS011;37751;52.408;12.536;2023-07-28T05:57:37;3.25;;;2.22;;
51664;SDS011;37751;52.408;12.536;2023-07-28T06:00:07;5.38;;;3.20;;
51664;SDS011;37751;52.408;12.536;2023-07-28T06:02:40;5.28;;;2.10;;
51664;SDS011;37751;52.408;12.536;2023-07-28T06:05:12;3.03;;;1.70;;
51664;SDS011;37751;52.408;12.536;2023-07-28T06:07:40;4.57;;;1.90;;
51664;SDS011;37751;52.408;12.536;2023-07-28T06:10:10;2.35;;;1.40;;
51664;SDS011;37751;52.408;12.536;2023-07-28T06:12:38;4.80;;;1.83;;
51664;SDS011;37751;52.408;12.536;2023-07-28T06:15:06;5.13;;;1.85;;
51664;SDS011;37751;52.408;12.536;2023-07-28T06:17:37;3.90;;;1.85;;
51664;SDS011;37751;52.408;12.536;2023-07-28T06:20:05;1.98;;;1.67;;
51664;SDS011;37751;52.408;12.536;2023-07-28T06:22:34;7.22;;;1.73;;
51664;SDS011;37751;52.408;12.536;2023-07-28T06:25:02;4.72;;;1.63;;
51664;SDS011;37751;52.408;12.536;2023-07-28T06:27:30;3.75;;;1.75;;
51664;SDS011;37751;52.408;12.536;2023-07-28T06:29:58;1.90;;;1.55;;
51664;SDS011;37751;52.408;12.536;2023-07-28T06:32:26;6.30;;;2.08;;
51664;SDS011;37751;52.408;12.536;2023-07-28T06:34:55;2.35;;;1.85;;
51664;SDS011;37751;52.408;12.536;2023-07-28T06:37:23;5.13;;;1.88;;
51664;SDS011;37751;52.408;12.536;2023-07-28T06:39:53;1.70;;;1.30;;
51664;SDS011;37751;52.408;12.536;2023-07-28T06:42:23;2.38;;;1.52;;
51664;SDS011;37751;52.408;12.536;2023-07-28T06:44:56;1.67;;;1.20;;
51664;SDS011;37751;52.408;12.536;2023-07-28T06:47:24;3.70;;;1.08;;
51664;SDS011;37751;52.408;12.536;2023-07-28T06:49:52;8.98;;;1.50;;
51664;SDS011;37751;52.408;12.536;2023-07-28T06:52:20;4.43;;;1.15;;
51664;SDS011;37751;52.408;12.536;2023-07-28T06:54:48;3.25;;;1.08;;
51664;SDS011;37751;52.408;12.536;2023-07-28T06:57:16;1.60;;;0.82;;
51664;SDS011;37751;52.408;12.536;2023-07-28T06:59:47;3.40;;;1.23;;
51664;SDS011;37751;52.408;12.536;2023-07-28T07:02:16;1.40;;;1.30;;
51664;SDS011;37751;52.408;12.536;2023-07-28T07:04:44;3.25;;;1.20;;
51664;SDS011;37751;52.408;12.536;2023-07-28T07:07:12;1.35;;;0.82;;
51664;SDS011;37751;52.408;12.536;2023-07-28T07:09:40;1.30;;;1.10;;
51664;SDS011;37751;52.408;12.536;2023-07-28T07:12:08;2.80;;;1.27;;
51664;SDS011;37751;52.408;12.536;2023-07-28T07:14:36;3.15;;;1.15;;
51664;SDS011;37751;52.408;12.536;2023-07-28T07:17:12;2.53;;;1.08;;
51664;SDS011;37751;52.408;12.536;2023-07-28T07:19:41;2.08;;;1.30;;
51664;SDS011;37751;52.408;12.536;2023-07-28T07:22:09;3.10;;;1.02;;
51664;SDS011;37751;52.408;12.536;2023-07-28T07:24:37;2.15;;;1.02;;
51664;SDS011;37751;52.408;12.536;2023-07-28T07:27:05;2.20;;;1.35;;
51664;SDS011;37751;52.408;12.536;2023-07-28T07:29:33;6.22;;;1.10;;
51664;SDS011;37751;52.408;12.536;2023-07-28T07:32:03;2.60;;;1.20;;
51664;SDS011;37751;52.408;12.536;2023-07-28T07:34:37;4.28;;;1.55;;
51664;SDS011;37751;52.408;12.536;2023-07-28T07:37:05;3.60;;;1.23;;
51664;SDS011;37751;52.408;12.536;2023-07-28T07:39:33;2.95;;;1.45;;
51664;SDS011;37751;52.408;12.536;2023-07-28T07:42:03;3.72;;;1.25;;
51664;SDS011;37751;52.408;12.536;2023-07-28T07:44:32;1.67;;;1.50;;
51664;SDS011;37751;52.408;12.536;2023-07-28T07:47:11;3.85;;;1.50;;
51664;SDS011;37751;52.408;12.536;2023-07-28T07:49:43;1.50;;;1.40;;
51664;SDS011;37751;52.408;12.536;2023-07-28T07:52:14;1.25;;;1.15;;
51664;SDS011;37751;52.408;12.536;2023-07-28T07:54:42;2.53;;;1.23;;
51664;SDS011;37751;52.408;12.536;2023-07-28T07:57:10;1.40;;;1.30;;
51664;SDS011;37751;52.408;12.536;2023-07-28T07:59:38;2.40;;;1.38;;
51664;SDS011;37751;52.408;12.536;2023-07-28T08:02:06;2.55;;;1.20;;
51664;SDS011;37751;52.408;12.536;2023-07-28T08:04:39;1.73;;;1.08;;
51664;SDS011;37751;52.408;12.536;2023-07-28T08:07:07;1.35;;;0.95;;
51664;SDS011;37751;52.408;12.536;2023-07-28T08:09:36;2.97;;;1.10;;
51664;SDS011;37751;52.408;12.536;2023-07-28T08:12:04;1.50;;;1.10;;
51664;SDS011;37751;52.408;12.536;2023-07-28T08:14:32;2.55;;;1.50;;
51664;SDS011;37751;52.408;12.536;2023-07-28T08:17:10;6.40;;;1.20;;
51664;SDS011;37751;52.408;12.536;2023-07-28T08:19:38;4.65;;;1.58;;
51664;SDS011;37751;52.408;12.536;2023-07-28T08:22:06;1.83;;;1.50;;
51664;SDS011;37751;52.408;12.536;2023-07-28T08:24:35;3.05;;;1.70;;
51664;SDS011;37751;52.408;12.536;2023-07-28T08:27:06;3.90;;;1.60;;
51664;SDS011;37751;52.408;12.536;2023-07-28T08:29:37;7.22;;;1.92;;
51664;SDS011;37751;52.408;12.536;2023-07-28T08:32:05;1.90;;;1.40;;
51664;SDS011;37751;52.408;12.536;2023-07-28T08:34:38;2.63;;;1.52;;
51664;SDS011;37751;52.408;12.536;2023-07-28T08:37:06;5.78;;;1.58;;
51664;SDS011;37751;52.408;12.536;2023-07-28T08:39:35;3.15;;;1.50;;
51664;SDS011;37751;52.408;12.536;2023-07-28T08:42:04;2.55;;;1.38;;
51664;SDS011;37751;52.408;12.536;2023-07-28T08:44:33;1.90;;;1.40;;
51664;SDS011;37751;52.408;12.536;2023-07-28T08:47:04;2.33;;;1.50;;
51664;SDS011;37751;52.408;12.536;2023-07-28T08:49:45;1.42;;;1.20;;
51664;SDS011;37751;52.408;12.536;2023-07-28T08:52:17;4.28;;;2.03;;
51664;SDS011;37751;52.408;12.536;2023-07-28T08:54:45;1.38;;;1.25;;
51664;SDS011;37751;52.408;12.536;2023-07-28T08:57:14;1.42;;;1.25;;
51664;SDS011;37751;52.408;12.536;2023-07-28T08:59:58;1.27;;;1.20;;
51664;SDS011;37751;52.408;12.536;2023-07-28T09:02:34;1.52;;;1.35;;
51664;SDS011;37751;52.408;12.536;2023-07-28T09:05:04;1.58;;;0.98;;
51664;SDS011;37751;52.408;12.536;2023-07-28T09:07:34;2.45;;;1.00;;
51664;SDS011;37751;52.408;12.536;2023-07-28T09:10:06;1.73;;;1.20;;
51664;SDS011;37751;52.408;12.536;2023-07-28T09:12:35;3.60;;;1.58;;
51664;SDS011;37751;52.408;12.536;2023-07-28T09:15:17;1.30;;;1.20;;
51664;SDS011;37751;52.408;12.536;2023-07-28T09:17:46;1.27;;;1.05;;
51664;SDS011;37751;52.408;12.536;2023-07-28T09:20:14;1.30;;;1.20;;
51664;SDS011;37751;52.408;12.536;2023-07-28T09:22:54;3.30;;;1.17;;
51664;SDS011;37751;52.408;12.536;2023-07-28T09:25:23;2.40;;;1.27;;
51664;SDS011;37751;52.408;12.536;2023-07-28T09:27:53;1.20;;;1.10;;
51664;SDS011;37751;52.408;12.536;2023-07-28T09:30:24;3.42;;;1.30;;
51664;SDS011;37751;52.408;12.536;2023-07-28T09:32:54;1.58;;;1.08;;
51664;SDS011;37751;52.408;12.536;2023-07-28T09:35:24;1.30;;;1.20;;
51664;SDS011;37751;52.408;12.536;2023-07-28T09:37:52;2.20;;;1.50;;
51664;SDS011;37751;52.408;12.536;2023-07-28T09:40:22;1.85;;;1.30;;
51664;SDS011;37751;52.408;12.536;2023-07-28T09:42:50;2.78;;;1.23;;
51664;SDS011;37751;52.408;12.536;2023-07-28T09:45:22;1.27;;;1.10;;
51664;SDS011;37751;52.408;12.536;2023-07-28T09:47:55;1.33;;;1.00;;
51664;SDS011;37751;52.408;12.536;2023-07-28T09:50:31;1.77;;;1.00;;
51664;SDS011;37751;52.408;12.536;2023-07-28T09:53:02;2.33;;;1.30;;
51664;SDS011;37751;52.408;12.536;2023-07-28T09:55:31;2.17;;;1.25;;
51664;SDS011;37751;52.408;12.536;2023-07-28T09:58:03;1.40;;;1.30;;
51664;SDS011;37751;52.408;12.536;2023-07-28T10:00:35;2.88;;;1.20;;
51664;SDS011;37751;52.408;12.536;2023-07-28T10:03:03;2.17;;;1.30;;
51664;SDS011;37751;52.408;12.536;2023-07-28T10:05:33;2.20;;;1.13;;
51664;SDS011;37751;52.408;12.536;2023-07-28T10:08:02;3.80;;;1.50;;
51664;SDS011;37751;52.408;12.536;2023-07-28T10:10:31;2.72;;;1.40;;
51664;SDS011;37751;52.408;12.536;2023-07-28T10:13:00;1.92;;;1.35;;
51664;SDS011;37751;52.408;12.536;2023-07-28T10:15:29;3.85;;;1.30;;
51664;SDS011;37751;52.408;12.536;2023-07-28T10:17:59;4.22;;;1.30;;
51664;SDS011;37751;52.408;12.536;2023-07-28T10:23:06;2.03;;;1.30;;
51664;SDS011;37751;52.408;12.536;2023-07-28T10:25:41;1.30;;;1.20;;
51664;SDS011;37751;52.408;12.536;2023-07-28T10:28:30;1.67;;;1.23;;
51664;SDS011;37751;52.408;12.536;2023-07-28T10:31:09;3.17;;;1.30;;
51664;SDS011;37751;52.408;12.536;2023-07-28T10:33:40;1.63;;;1.20;;
51664;SDS011;37751;52.408;12.536;2023-07-28T10:36:16;1.38;;;1.20;;
51664;SDS011;37751;52.408;12.536;2023-07-28T10:44:30;1.35;;;1.25;;
51664;SDS011;37751;52.408;12.536;2023-07-28T10:47:08;1.85;;;1.40;;
51664;SDS011;37751;52.408;12.536;2023-07-28T10:49:37;3.70;;;1.48;;
51664;SDS011;37751;52.408;12.536;2023-07-28T10:52:05;3.90;;;1.20;;
51664;SDS011;37751;52.408;12.536;2023-07-28T10:54:35;2.65;;;1.45;;
51664;SDS011;37751;52.408;12.536;2023-07-28T10:57:03;1.63;;;1.15;;
51664;SDS011;37751;52.408;12.536;2023-07-28T10:59:35;2.67;;;1.40;;
51664;SDS011;37751;52.408;12.536;2023-07-28T11:02:07;2.67;;;1.30;;
51664;SDS011;37751;52.408;12.536;2023-07-28T11:04:35;3.05;;;1.48;;
51664;SDS011;37751;52.408;12.536;2023-07-28T11:07:03;1.98;;;1.20;;
51664;SDS011;37751;52.408;12.536;2023-07-28T11:09:35;1.83;;;1.10;;
51664;SDS011;37751;52.408;12.536;2023-07-28T11:12:03;2.08;;;1.40;;
51664;SDS011;37751;52.408;12.536;2023-07-28T11:14:31;2.70;;;1.25;;
51664;SDS011;37751;52.408;12.536;2023-07-28T11:16:59;1.67;;;1.55;;
51664;SDS011;37751;52.408;12.536;2023-07-28T11:19:29;2.55;;;1.20;;
51664;SDS011;37751;52.408;12.536;2023-07-28T11:21:56;3.70;;;1.40;;
51664;SDS011;37751;52.408;12.536;2023-07-28T11:24:25;2.78;;;1.23;;
51664;SDS011;37751;52.408;12.536;2023-07-28T11:26:53;1.83;;;1.40;;
51664;SDS011;37751;52.408;12.536;2023-07-28T11:29:22;2.72;;;1.65;;
51664;SDS011;37751;52.408;12.536;2023-07-28T11:31:55;1.42;;;1.33;;
51664;SDS011;37751;52.408;12.536;2023-07-28T11:34:28;2.05;;;1.35;;
51664;SDS011;37751;52.408;12.536;2023-07-28T11:37:01;11.00;;;1.45;;
51664;SDS011;37751;52.408;12.536;2023-07-28T11:39:31;2.38;;;1.08;;
51664;SDS011;37751;52.408;12.536;2023-07-28T11:42:02;3.38;;;1.00;;
51664;SDS011;37751;52.408;12.536;2023-07-28T11:44:30;4.32;;;1.20;;
51664;SDS011;37751;52.408;12.536;2023-07-28T11:46:59;2.75;;;1.10;;
51664;SDS011;37751;52.408;12.536;2023-07-28T11:49:27;2.20;;;1.30;;
51664;SDS011;37751;52.408;12.536;2023-07-28T11:51:54;4.97;;;1.92;;
51664;SDS011;37751;52.408;12.536;2023-07-28T11:54:26;2.03;;;1.27;;
51664;SDS011;37751;52.408;12.536;2023-07-28T11:56:55;1.77;;;1.10;;
51664;SDS011;37751;52.408;12.536;2023-07-28T11:59:24;2.40;;;1.30;;
51664;SDS011;37751;52.408;12.536;2023-07-28T12:01:59;1.45;;;1.35;;
51664;SDS011;37751;52.408;12.536;2023-07-28T12:04:30;1.30;;;1.20;;
51664;SDS011;37751;52.408;12.536;2023-07-28T12:12:31;8.10;;;2.10;;
51664;SDS011;37751;52.408;12.536;2023-07-28T12:15:24;175.18;;;10.00;;
51664;SDS011;37751;52.408;12.536;2023-07-28T12:18:06;0.30;;;0.30;;
51664;SDS011;37751;52.408;12.536;2023-07-28T12:20:44;0.10;;;0.10;;
51664;SDS011;37751;52.408;12.536;2023-07-28T12:23:18;0.00;;;0.00;;
51664;SDS011;37751;52.408;12.536;2023-07-28T12:25:51;16.35;;;1.85;;
51664;SDS011;37751;52.408;12.536;2023-07-28T12:28:22;0.13;;;0.13;;
51664;SDS011;37751;52.408;12.536;2023-07-28T12:30:50;0.00;;;0.00;;
51664;SDS011;37751;52.408;12.536;2023-07-28T12:33:19;0.20;;;0.20;;
51664;SDS011;37751;52.408;12.536;2023-07-28T12:35:54;0.55;;;0.55;;
51664;SDS011;37751;52.408;12.536;2023-07-28T12:38:42;0.50;;;0.50;;
51664;SDS011;37751;52.408;12.536;2023-07-28T12:41:10;0.90;;;0.90;;
51664;SDS011;37751;52.408;12.536;2023-07-28T12:43:38;1.20;;;1.20;;
51664;SDS011;37751;52.408;12.536;2023-07-28T12:53:08;1.02;;;1.02;;
51664;SDS011;37751;52.408;12.536;2023-07-28T12:55:43;0.40;;;0.40;;
51664;SDS011;37751;52.408;12.536;2023-07-28T12:58:13;0.30;;;0.30;;
51664;SDS011;37751;52.408;12.536;2023-07-28T13:00:44;0.30;;;0.30;;
51664;SDS011;37751;52.408;12.536;2023-07-28T13:03:17;0.30;;;0.30;;
51664;SDS011;37751;52.408;12.536;2023-07-28T13:05:48;0.20;;;0.20;;
51664;SDS011;37751;52.408;12.536;2023-07-28T13:08:28;0.10;;;0.10;;
51664;SDS011;37751;52.408;12.536;2023-07-28T13:11:07;0.03;;;0.03;;
51664;SDS011;37751;52.408;12.536;2023-07-28T13:14:04;0.13;;;0.13;;
51664;SDS011;37751;52.408;12.536;2023-07-28T13:16:36;0.00;;;0.00;;
51664;SDS011;37751;52.408;12.536;2023-07-28T13:19:33;0.00;;;0.00;;
51664;SDS011;37751;52.408;12.536;2023-07-28T13:22:04;0.52;;;0.30;;
51664;SDS011;37751;52.408;12.536;2023-07-28T13:24:36;0.00;;;0.00;;
51664;SDS011;37751;52.408;12.536;2023-07-28T13:27:04;0.40;;;0.40;;
51664;SDS011;37751;52.408;12.536;2023-07-28T13:29:35;0.20;;;0.20;;
51664;SDS011;37751;52.408;12.536;2023-07-28T13:52:19;0.00;;;0.00;;
51664;SDS011;37751;52.408;12.536;2023-07-28T13:54:52;0.10;;;0.10;;
51664;SDS011;37751;52.408;12.536;2023-07-28T13:57:26;0.10;;;0.10;;
51664;SDS011;37751;52.408;12.536;2023-07-28T13:59:54;0.00;;;0.00;;
51664;SDS011;37751;52.408;12.536;2023-07-28T14:02:33;0.00;;;0.00;;
51664;SDS011;37751;52.408;12.536;2023-07-28T14:05:08;0.03;;;0.03;;
51664;SDS011;37751;52.408;12.536;2023-07-28T14:07:50;3.03;;;0.65;;
51664;SDS011;37751;52.408;12.536;2023-07-28T14:10:26;0.63;;;0.63;;
51664;SDS011;37751;52.408;12.536;2023-07-28T14:13:38;0.20;;;0.20;;
51664;SDS011;37751;52.408;12.536;2023-07-28T14:16:19;0.00;;;0.00;;
51664;SDS011;37751;52.408;12.536;2023-07-28T14:18:54;0.03;;;0.03;;
51664;SDS011;37751;52.408;12.536;2023-07-28T14:21:28;0.20;;;0.20;;
51664;SDS011;37751;52.408;12.536;2023-07-28T14:23:57;0.32;;;0.32;;
51664;SDS011;37751;52.408;12.536;2023-07-28T14:26:38;0.05;;;0.05;;
51664;SDS011;37751;52.408;12.536;2023-07-28T14:29:07;0.00;;;0.00;;
51664;SDS011;37751;52.408;12.536;2023-07-28T14:31:38;0.00;;;0.00;;
51664;SDS011;37751;52.408;12.536;2023-07-28T14:34:06;0.00;;;0.00;;
51664;SDS011;37751;52.408;12.536;2023-07-28T14:36:38;0.00;;;0.00;;
51664;SDS011;37751;52.408;12.536;2023-07-28T14:39:18;0.25;;;0.25;;
51664;SDS011;37751;52.408;12.536;2023-07-28T14:41:46;0.00;;;0.00;;
51664;SDS011;37751;52.408;12.536;2023-07-28T14:44:18;0.10;;;0.10;;
51664;SDS011;37751;52.408;12.536;2023-07-28T14:46:52;0.57;;;0.20;;
51664;SDS011;37751;52.408;12.536;2023-07-28T14:49:31;0.10;;;0.10;;
51664;SDS011;37751;52.408;12.536;2023-07-28T14:52:00;0.05;;;0.05;;
51664;SDS011;37751;52.408;12.536;2023-07-28T14:54:50;0.00;;;0.00;;
51664;SDS011;37751;52.408;12.536;2023-07-28T14:57:27;0.00;;;0.00;;
51664;SDS011;37751;52.408;12.536;2023-07-28T15:00:10;0.30;;;0.30;;
51664;SDS011;37751;52.408;12.536;2023-07-28T15:02:50;0.00;;;0.00;;
51664;SDS011;37751;52.408;12.536;2023-07-28T15:05:28;0.00;;;0.00;;
51664;SDS011;37751;52.408;12.536;2023-07-28T15:07:57;0.00;;;0.00;;
51664;SDS011;37751;52.408;12.536;2023-07-28T15:10:28;0.13;;;0.13;;
51664;SDS011;37751;52.408;12.536;2023-07-28T15:12:56;0.00;;;0.00;;
51664;SDS011;37751;52.408;12.536;2023-07-28T15:15:24;0.00;;;0.00;;
51664;SDS011;37751;52.408;12.536;2023-07-28T15:17:57;0.00;;;0.00;;
51664;SDS011;37751;52.408;12.536;2023-07-28T15:20:27;0.00;;;0.00;;
51664;SDS011;37751;52.408;12.536;2023-07-28T15:22:55;0.00;;;0.00;;
51664;SDS011;37751;52.408;12.536;2023-07-28T15:25:29;0.00;;;0.00;;
51664;SDS011;37751;52.408;12.536;2023-07-28T15:28:53;0.00;;;0.00;;
51664;SDS011;37751;52.408;12.536;2023-07-28T15:31:28;0.10;;;0.10;;
51664;SDS011;37751;52.408;12.536;2023-07-28T15:33:56;0.50;;;0.43;;
51664;SDS011;37751;52.408;12.536;2023-07-28T15:36:27;0.00;;;0.00;;
51664;SDS011;37751;52.408;12.536;2023-07-28T15:38:57;0.00;;;0.00;;
51664;SDS011;37751;52.408;12.536;2023-07-28T15:41:32;0.08;;;0.08;;